Time;durP1;ratioP1;P1;durP2;ratioP2;P2;SDS_P1;SDS_P2;PMS_P1;PMS_P2;Temp;Humidity;BMP_temperature;BMP_pressure;BME280_temperature;BME280_humidity;BME280_pressure;Samples;Min_cycle;Max_cycle;Signal;HPM_P1;HPM_P2
2023/12/27 01:12:29;;;;;;;8.07;4.43;;;8.10;99.90;;;;;;5046134;28;20436;-89
2023/12/27 01:16:05;;;;;;;8.10;3.87;;;8.20;99.90;;;;;;5017173;28;20462;-88
2023/12/27 01:19:03;;;;;;;7.40;3.90;;;8.20;99.90;;;;;;5011178;28;20426;-88
2023/12/27 01:25:35;;;;;;;9.43;4.13;;;8.00;99.90;;;;;;5058283;28;20484;-89
2023/12/27 01:28:54;;;;;;;7.57;3.80;;;7.80;99.90;;;;;;4971758;28;20456;-89
2023/12/27 01:32:30;;;;;;;10.93;3.83;;;7.90;99.90;;;;;;5014689;28;20442;-89
2023/12/27 01:35:48;;;;;;;6.40;3.63;;;7.90;99.90;;;;;;5021873;28;20462;-89
2023/12/27 01:39:22;;;;;;;12.07;5.53;;;8.10;99.90;;;;;;4992924;28;20471;-89
2023/12/27 01:42:50;;;;;;;5.00;3.33;;;8.10;99.90;;;;;;4987789;28;20527;-88
2023/12/27 01:48:31;;;;;;;9.90;3.60;;;8.10;99.90;;;;;;5087226;22;20569;-88
2023/12/27 01:51:34;;;;;;;8.23;3.13;;;8.10;99.90;;;;;;5018376;28;20440;-89
2023/12/27 01:57:46;;;;;;;7.00;3.57;;;8.10;99.90;;;;;;5063997;28;20452;-88
2023/12/27 02:01:21;;;;;;;6.10;2.90;;;8.10;99.90;;;;;;5048656;28;20917;-88
2023/12/27 02:04:36;;;;;;;7.07;3.70;;;8.10;99.90;;;;;;4980939;28;20456;-89
2023/12/27 02:16:01;;;;;;;;;;;;;;;;;;;;;
2023/12/27 02:19:11;;;;;;;10.40;4.03;;;7.80;99.90;;;;;;5006953;28;20531;-88
2023/12/27 02:26:09;;;;;;;10.23;3.17;;;8.10;99.90;;;;;;5009390;28;20574;-88
2023/12/27 02:29:24;;;;;;;8.70;3.40;;;8.10;99.90;;;;;;5015627;28;20459;-89
2023/12/27 02:32:31;;;;;;;5.80;2.90;;;8.00;99.90;;;;;;4989683;28;20565;-88
2023/12/27 02:35:30;;;;;;;9.10;3.37;;;8.10;99.90;;;;;;4981340;28;20478;-89
2023/12/27 02:38:25;;;;;;;9.20;3.00;;;8.20;99.90;;;;;;5053664;28;20631;-89
2023/12/27 02:41:12;;;;;;;6.47;2.70;;;8.30;99.90;;;;;;5026293;28;20448;-88
2023/12/27 02:44:32;;;;;;;5.57;3.00;;;8.20;99.90;;;;;;5074442;28;20428;-89
2023/12/27 02:47:36;;;;;;;12.50;3.23;;;8.20;99.90;;;;;;5069006;28;20491;-88
2023/12/27 02:50:53;;;;;;;5.63;2.60;;;8.20;99.90;;;;;;5037450;28;20919;-89
2023/12/27 02:53:58;;;;;;;6.70;3.60;;;8.10;99.90;;;;;;5042780;28;20429;-89
2023/12/27 02:57:42;;;;;;;7.07;3.00;;;7.90;99.90;;;;;;5049063;28;20812;-88
2023/12/27 03:04:04;;;;;;;;;;;;;;;;;;;;;
2023/12/27 03:07:14;;;;;;;;;;;;;;;;;;;;;
2023/12/27 03:10:28;;;;;;;5.03;2.73;;;7.80;99.90;;;;;;5019275;28;20455;-89
2023/12/27 03:16:35;;;;;;;4.53;2.13;;;7.80;99.90;;;;;;5026050;28;20535;-90
2023/12/27 03:20:30;;;;;;;7.63;3.27;;;7.70;99.90;;;;;;4988379;28;20506;-88
2023/12/27 03:23:50;;;;;;;9.50;2.40;;;7.70;99.90;;;;;;4997387;28;20447;-90
2023/12/27 03:31:28;;;;;;;4.00;2.20;;;7.70;99.90;;;;;;4958001;28;20474;-88
2023/12/27 03:37:45;;;;;;;6.80;2.90;;;7.40;99.90;;;;;;5011763;28;20998;-89
2023/12/27 03:41:15;;;;;;;4.37;2.67;;;7.40;99.90;;;;;;4995679;28;20554;-89
2023/12/27 03:46:55;;;;;;;8.13;2.50;;;7.40;99.90;;;;;;5081547;22;20494;-88
2023/12/27 03:53:43;;;;;;;5.20;2.40;;;7.50;99.90;;;;;;5049977;28;20458;-88
2023/12/27 03:56:52;;;;;;;5.63;2.60;;;7.60;99.90;;;;;;5034612;28;20528;-89
2023/12/27 04:00:04;;;;;;;9.30;3.00;;;7.60;99.90;;;;;;5031937;28;20446;-86
2023/12/27 04:02:57;;;;;;;4.30;2.50;;;7.60;99.90;;;;;;5023504;28;20439;-88
2023/12/27 04:08:48;;;;;;;6.80;3.20;;;7.60;99.90;;;;;;5001628;28;20463;-87
2023/12/27 04:12:46;;;;;;;4.30;2.37;;;7.70;99.90;;;;;;5000591;28;20440;-87
2023/12/27 04:15:41;;;;;;;10.97;2.87;;;7.70;99.90;;;;;;5007341;28;20464;-87
2023/12/27 04:21:25;;;;;;;14.23;3.10;;;7.80;99.90;;;;;;4989548;28;20446;-87
2023/12/27 04:28:19;;;;;;;4.93;2.50;;;7.70;99.90;;;;;;4958126;28;20431;-87
2023/12/27 04:31:20;;;;;;;5.50;2.70;;;7.80;99.90;;;;;;4901282;29;20472;-89
2023/12/27 04:34:04;;;;;;;4.90;2.57;;;7.90;99.90;;;;;;4890907;29;21038;-89
2023/12/27 04:43:44;;;;;;;;;;;;;;;;;;;;;
2023/12/27 05:35:17;;;;;;;8.40;3.87;;;8.00;99.90;;;;;;5042725;28;20474;-88
2023/12/27 05:38:38;;;;;;;3.93;2.10;;;8.10;99.90;;;;;;5035768;28;20461;-89
2023/12/27 05:42:00;;;;;;;4.10;2.77;;;8.20;99.90;;;;;;5038166;28;20442;-90
2023/12/27 05:45:35;;;;;;;;;;;;;;;;;;;;;
2023/12/27 05:48:36;;;;;;;8.07;3.07;;;8.30;99.90;;;;;;5055730;28;20458;-90
2023/12/27 05:55:54;;;;;;;3.27;2.50;;;8.30;99.90;;;;;;5060637;28;20741;-88
2023/12/27 05:58:51;;;;;;;5.57;2.47;;;8.20;99.90;;;;;;5052686;28;20464;-88
2023/12/27 06:01:59;;;;;;;6.40;3.10;;;8.30;99.90;;;;;;4974273;28;20437;-89
2023/12/27 06:05:01;;;;;;;4.70;2.80;;;8.30;99.90;;;;;;4940246;29;20451;-90
2023/12/27 06:08:20;;;;;;;6.40;4.07;;;8.20;99.90;;;;;;4927737;29;20500;-88
2023/12/27 06:11:22;;;;;;;6.40;3.37;;;8.40;99.90;;;;;;4907742;29;20451;-87
2023/12/27 06:18:10;;;;;;;;;;;;;;;;;;;;;
2023/12/27 06:21:10;;;;;;;;;;;;;;;;;;;;;
2023/12/27 06:24:38;;;;;;;6.03;4.20;;;8.40;99.90;;;;;;4832970;29;20574;-88
2023/12/27 06:27:38;;;;;;;5.30;3.10;;;8.10;99.90;;;;;;4817124;29;20574;-88
2023/12/27 06:34:55;;;;;;;7.90;3.83;;;8.50;99.90;;;;;;4829024;29;20461;-87
2023/12/27 06:38:45;;;;;;;;;;;;;;;;;;;;;
2023/12/27 06:42:03;;;;;;;12.00;4.10;;;8.80;99.90;;;;;;4942477;28;20448;-89
2023/12/27 06:44:52;;;;;;;7.47;3.60;;;8.80;99.90;;;;;;4958796;28;20548;-89
2023/12/27 06:47:55;;;;;;;6.13;3.70;;;8.80;99.90;;;;;;4981489;28;20504;-90
2023/12/27 06:51:07;;;;;;;5.10;3.77;;;8.80;99.90;;;;;;4967300;28;20470;-88
2023/12/27 06:54:52;;;;;;;;;;;;;;;;;;;;;
2023/12/27 06:58:04;;;;;;;8.20;4.33;;;8.70;99.90;;;;;;5031720;28;20500;-87
2023/12/27 07:17:26;;;;;;;5.87;2.93;;;9.10;99.90;;;;;;5273252;22;20486;-87
2023/12/27 07:21:30;;;;;;;11.70;4.40;;;9.00;99.90;;;;;;4878773;29;20464;-87
2023/12/27 07:24:48;;;;;;;9.27;3.53;;;8.90;99.90;;;;;;4915799;29;20548;-90
2023/12/27 07:28:16;;;;;;;;;;;;;;;;;;;;;
2023/12/27 07:31:42;;;;;;;4.87;2.77;;;9.00;99.90;;;;;;4915572;29;20447;-88
2023/12/27 07:45:30;;;;;;;;;;;;;;;;;;;;;
2023/12/27 07:59:28;;;;;;;5.73;2.73;;;9.00;99.90;;;;;;5044065;28;20429;-88
2023/12/27 08:10:52;;;;;;;2.90;2.40;;;9.40;99.90;;;;;;4935208;29;20513;-89
2023/12/27 08:21:26;;;;;;;;;;;;;;;;;;;;;
2023/12/27 08:32:00;;;;;;;4.83;2.57;;;9.20;99.90;;;;;;4685765;30;21015;-89
2023/12/27 08:35:32;;;;;;;6.03;2.30;;;9.00;99.90;;;;;;4737853;30;20463;-88
2023/12/27 08:38:54;;;;;;;;;;;;;;;;;;;;;
2023/12/27 08:42:09;;;;;;;4.80;2.40;;;9.20;99.90;;;;;;4865488;29;20478;-89
2023/12/27 08:49:03;;;;;;;7.67;2.67;;;9.60;99.90;;;;;;4960198;28;20502;-89
2023/12/27 08:52:24;;;;;;;;;;;;;;;;;;;;;
2023/12/27 08:55:24;;;;;;;5.23;2.70;;;9.60;99.90;;;;;;4972846;22;20662;-88
2023/12/27 08:58:32;;;;;;;4.60;2.93;;;9.60;99.90;;;;;;5024802;28;20469;-89
2023/12/27 09:01:40;;;;;;;5.17;2.80;;;9.60;99.90;;;;;;5007949;28;20431;-89
2023/12/27 09:04:47;;;;;;;3.00;2.03;;;9.50;99.90;;;;;;4966714;28;20618;-88
2023/12/27 09:08:24;;;;;;;3.10;2.47;;;9.50;99.90;;;;;;4956752;28;20484;-88
2023/12/27 09:11:53;;;;;;;;;;;;;;;;;;;;;
2023/12/27 09:22:27;;;;;;;3.40;1.83;;;9.90;99.90;;;;;;4962537;28;20424;-85
2023/12/27 10:04:17;;;;;;;3.33;2.00;;;10.30;99.90;;;;;;5045287;28;20477;-89
2023/12/27 10:07:38;;;;;;;2.47;2.27;;;10.30;99.90;;;;;;4930418;28;20506;-87
2023/12/27 10:11:06;;;;;;;3.70;2.00;;;10.30;99.90;;;;;;5008180;28;20469;-89
2023/12/27 10:18:37;;;;;;;;;;;;;;;;;;;;;
2023/12/27 10:21:22;;;;;;;2.47;1.70;;;10.70;99.90;;;;;;4939426;29;20896;-89
2023/12/27 10:28:24;;;;;;;2.27;1.90;;;10.60;99.90;;;;;;4949433;28;20475;-87
2023/12/27 10:31:08;;;;;;;2.10;1.73;;;10.60;99.90;;;;;;4993258;28;20457;-87
2023/12/27 10:34:12;;;;;;;2.60;1.47;;;10.70;99.90;;;;;;4981896;28;20424;-89
2023/12/27 10:37:47;;;;;;;;;;;;;;;;;;;;;
2023/12/27 10:40:59;;;;;;;2.60;1.80;;;10.50;99.90;;;;;;4941135;29;20435;-89
2023/12/27 10:44:11;;;;;;;2.73;2.20;;;10.50;99.90;;;;;;4914290;29;20459;-90
2023/12/27 10:51:14;;;;;;;1.50;1.40;;;10.70;99.90;;;;;;4895671;29;20514;-90
2023/12/27 10:56:52;;;;;;;3.87;1.87;;;10.60;99.90;;;;;;5282039;22;20505;-88
2023/12/27 11:00:10;;;;;;;;;;;;;;;;;;;;;
2023/12/27 11:03:37;;;;;;;1.83;1.60;;;10.80;99.90;;;;;;5049121;28;20455;-89
2023/12/27 11:09:18;;;;;;;4.13;1.90;;;10.90;99.90;;;;;;5134915;22;20550;-89
2023/12/27 11:15:49;;;;;;;1.40;1.30;;;10.90;99.90;;;;;;5015943;22;20508;-89
2023/12/27 11:19:11;;;;;;;;;;;;;;;;;;;;;
2023/12/27 11:22:35;;;;;;;;;;;;;;;;;;;;;
2023/12/27 11:33:44;;;;;;;1.40;1.30;;;11.30;99.90;;;;;;4976693;28;20444;-89
2023/12/27 11:42:09;;;;;;;3.23;1.43;;;11.30;99.90;;;;;;5070517;28;20448;-88
2023/12/27 11:49:19;;;;;;;1.70;1.23;;;11.40;99.90;;;;;;5050440;28;20464;-86
2023/12/27 11:56:18;;;;;;;1.80;1.63;;;11.40;99.90;;;;;;5028228;28;20454;-89
2023/12/27 11:59:40;;;;;;;2.20;1.20;;;11.40;99.90;;;;;;4953588;28;20534;-89
2023/12/27 12:10:43;;;;;;;1.37;0.90;;;11.40;99.90;;;;;;4979030;28;20456;-89
2023/12/27 12:36:12;;;;;;;;;;;;;;;;;;;;;
2023/12/27 12:39:18;;;;;;;1.10;1.10;;;11.90;99.70;;;;;;5033181;28;20553;-88
2023/12/27 12:42:33;;;;;;;2.30;1.30;;;12.30;99.00;;;;;;4983615;28;20485;-88
2023/12/27 12:46:01;;;;;;;;;;;;;;;;;;;;;
2023/12/27 13:33:36;;;;;;;3.70;1.20;;;12.30;98.30;;;;;;4977728;28;20551;-89
2023/12/27 13:37:26;;;;;;;1.67;1.57;;;12.20;98.40;;;;;;5018093;28;20475;-88
2023/12/27 13:40:54;;;;;;;1.80;1.70;;;12.20;98.40;;;;;;4962522;28;21414;-88
2023/12/27 13:51:23;;;;;;;2.53;1.30;;;12.00;98.50;;;;;;4933783;29;20489;-88
2023/12/27 13:54:47;;;;;;;3.13;1.80;;;11.90;98.70;;;;;;4978492;28;20443;-87
2023/12/27 14:01:41;;;;;;;;;;;;;;;;;;;;;
2023/12/27 14:05:21;;;;;;;;;;;;;;;;;;;;;
2023/12/27 14:08:17;;;;;;;2.50;1.60;;;11.80;99.20;;;;;;4949609;29;20558;-87
2023/12/27 14:11:29;;;;;;;2.90;1.43;;;11.90;99.10;;;;;;4944886;28;20468;-88
2023/12/27 14:14:37;;;;;;;1.30;1.00;;;11.80;99.20;;;;;;4892805;29;20468;-88
2023/12/27 14:18:04;;;;;;;2.83;1.33;;;11.80;99.30;;;;;;4879647;29;20478;-88
2023/12/27 14:21:01;;;;;;;3.60;1.30;;;11.70;99.30;;;;;;4868752;29;20449;-89
2023/12/27 14:23:51;;;;;;;4.53;1.53;;;11.70;99.20;;;;;;4957064;29;20504;-89
2023/12/27 14:26:37;;;;;;;5.03;1.70;;;11.60;99.30;;;;;;4973422;28;20461;-89
2023/12/27 14:29:26;;;;;;;2.47;1.33;;;11.60;99.50;;;;;;4955367;28;20522;-89
2023/12/27 14:32:36;;;;;;;1.80;1.70;;;11.60;99.50;;;;;;4955692;29;20804;-88
2023/12/27 14:39:36;;;;;;;3.10;1.80;;;11.60;99.10;;;;;;4914571;29;21021;-89
2023/12/27 14:42:54;;;;;;;3.27;1.83;;;11.60;99.40;;;;;;4949871;28;20518;-89
2023/12/27 14:45:49;;;;;;;1.90;1.27;;;11.50;99.30;;;;;;5033414;28;20595;-89
2023/12/27 14:48:47;;;;;;;3.13;1.80;;;11.50;99.20;;;;;;5047810;28;20490;-89
2023/12/27 14:51:55;;;;;;;4.67;2.07;;;11.50;99.10;;;;;;5041833;28;20445;-89
2023/12/27 14:54:48;;;;;;;2.93;1.53;;;11.60;98.90;;;;;;5053315;28;20425;-89
2023/12/27 14:57:39;;;;;;;1.93;1.73;;;11.50;98.80;;;;;;5041018;28;20446;-90
2023/12/27 15:00:33;;;;;;;2.70;1.80;;;11.50;98.90;;;;;;4977588;28;20452;-89
2023/12/27 15:03:32;;;;;;;5.77;1.53;;;11.40;98.90;;;;;;4982800;28;20462;-87
2023/12/27 15:06:39;;;;;;;2.80;2.37;;;11.30;99.00;;;;;;5076350;22;20654;-88
2023/12/27 15:13:41;;;;;;;1.67;1.30;;;11.30;99.10;;;;;;5027887;28;20452;-88
2023/12/27 15:16:34;;;;;;;2.03;1.13;;;11.30;98.90;;;;;;4970316;28;20514;-88
2023/12/27 15:19:35;;;;;;;3.27;1.67;;;11.30;99.30;;;;;;4956219;28;20449;-86
2023/12/27 15:23:01;;;;;;;;;;;;;;;;;;;;;
2023/12/27 15:25:59;;;;;;;4.83;2.07;;;11.20;99.90;;;;;;4969056;28;20471;-86
2023/12/27 15:29:04;;;;;;;4.77;2.37;;;11.10;99.90;;;;;;4967270;28;20481;-86
2023/12/27 15:31:35;;;;;;;2.03;1.50;;;11.20;99.90;;;;;;4951538;28;20513;-86
2023/12/27 15:34:31;;;;;;;1.63;1.47;;;11.00;99.90;;;;;;4965478;28;20460;-87
2023/12/27 15:37:16;;;;;;;2.00;1.40;;;11.10;99.90;;;;;;4970403;28;20467;-87
2023/12/27 15:40:05;;;;;;;11.30;2.57;;;11.00;99.90;;;;;;4953322;28;20647;-84
2023/12/27 15:43:00;;;;;;;1.97;1.87;;;11.00;99.90;;;;;;4964882;28;20572;-87
2023/12/27 15:46:15;;;;;;;;;;;;;;;;;;;;;
2023/12/27 15:49:14;;;;;;;5.50;1.90;;;10.70;99.90;;;;;;4952077;28;20516;-88
2023/12/27 15:55:19;;;;;;;4.63;2.30;;;10.70;99.90;;;;;;5014895;28;20477;-85
2023/12/27 15:58:15;;;;;;;2.80;2.17;;;10.90;99.90;;;;;;5022867;28;20454;-85
2023/12/27 16:04:36;;;;;;;6.03;2.60;;;10.80;99.90;;;;;;5030017;28;20715;-88
2023/12/27 16:11:45;;;;;;;3.73;3.43;;;10.80;99.90;;;;;;4921059;29;20550;-86
2023/12/27 16:15:01;;;;;;;3.93;2.40;;;10.80;99.90;;;;;;4895905;29;20470;-87
2023/12/27 16:18:12;;;;;;;4.97;2.53;;;10.80;99.90;;;;;;4882811;29;20453;-86
2023/12/27 16:21:01;;;;;;;4.40;2.17;;;10.60;99.90;;;;;;4974459;28;21130;-87
2023/12/27 16:24:03;;;;;;;2.47;2.27;;;10.70;99.90;;;;;;4968304;28;20480;-86
2023/12/27 16:26:50;;;;;;;5.27;2.93;;;10.80;99.90;;;;;;4965550;28;20468;-86
2023/12/27 16:29:46;;;;;;;7.63;2.70;;;10.70;99.90;;;;;;5197228;22;20528;-87
2023/12/27 16:32:37;;;;;;;3.00;1.60;;;10.60;99.90;;;;;;5055359;28;20437;-88
2023/12/27 16:35:40;;;;;;;5.33;2.43;;;10.60;99.90;;;;;;5038544;28;20507;-89
2023/12/27 16:38:56;;;;;;;4.57;2.10;;;10.60;99.90;;;;;;5035106;28;20473;-88
2023/12/27 16:41:52;;;;;;;3.10;1.77;;;10.40;99.90;;;;;;5018623;28;20536;-90
2023/12/27 16:44:46;;;;;;;;;;;;;;;;;;;;;
2023/12/27 16:47:45;;;;;;;4.53;2.10;;;10.60;99.90;;;;;;5048384;28;20482;-88
2023/12/27 16:50:26;;;;;;;2.70;1.90;;;10.60;99.90;;;;;;5036898;28;20493;-88
2023/12/27 16:53:59;;;;;;;3.77;2.40;;;10.60;99.90;;;;;;5036383;28;20827;-89
2023/12/27 16:57:00;;;;;;;3.70;2.00;;;10.50;99.90;;;;;;5043193;28;20464;-87
2023/12/27 16:59:43;;;;;;;2.33;1.63;;;10.40;99.90;;;;;;5054377;28;20619;-89
2023/12/27 17:02:26;;;;;;;;;;;;;;;;;;;;;
2023/12/27 17:05:11;;;;;;;5.67;2.30;;;10.50;99.90;;;;;;5428731;22;20554;-88
2023/12/27 17:08:07;;;;;;;3.10;2.00;;;10.40;99.90;;;;;;5026119;28;20486;-90
2023/12/27 17:13:49;;;;;;;2.43;2.23;;;10.40;99.90;;;;;;4993143;28;20460;-88
2023/12/27 17:20:28;;;;;;;3.40;2.07;;;10.30;99.90;;;;;;5000691;28;20457;-88
2023/12/27 17:23:15;;;;;;;3.10;2.60;;;10.50;99.90;;;;;;4990487;28;20445;-87
2023/12/27 17:25:45;;;;;;;4.03;2.70;;;10.40;99.90;;;;;;5029216;28;20471;-87
2023/12/27 17:28:38;;;;;;;2.50;2.30;;;10.30;99.90;;;;;;5018537;28;20500;-88
2023/12/27 17:31:40;;;;;;;;;;;;;;;;;;;;;
2023/12/27 17:34:30;;;;;;;5.03;2.50;;;10.40;99.90;;;;;;5031410;28;20476;-89
2023/12/27 17:37:38;;;;;;;3.10;2.53;;;10.20;99.90;;;;;;5024280;28;20483;-87
2023/12/27 17:40:41;;;;;;;4.30;1.57;;;10.10;99.90;;;;;;5002142;28;20426;-87
2023/12/27 17:44:10;;;;;;;4.37;2.27;;;10.30;99.90;;;;;;5007186;28;20472;-88
2023/12/27 17:47:39;;;;;;;5.20;2.70;;;10.20;99.90;;;;;;5012382;28;20482;-85
2023/12/27 17:50:43;;;;;;;3.27;2.13;;;10.20;99.90;;;;;;5010642;28;20539;-87
2023/12/27 17:53:27;;;;;;;5.93;2.70;;;10.10;99.90;;;;;;5013688;28;20430;-87
2023/12/27 17:56:50;;;;;;;3.60;2.80;;;10.20;99.90;;;;;;5002097;28;20481;-88
2023/12/27 17:59:54;;;;;;;3.63;2.33;;;10.10;99.90;;;;;;5021109;28;20450;-87
2023/12/27 18:02:46;;;;;;;4.07;2.40;;;10.10;99.90;;;;;;5002474;28;20442;-86
2023/12/27 18:09:12;;;;;;;3.63;2.20;;;10.10;99.90;;;;;;5003838;28;20481;-86
2023/12/27 18:11:58;;;;;;;4.73;2.60;;;10.20;99.90;;;;;;5021218;28;20461;-86
2023/12/27 18:15:12;;;;;;;2.87;2.10;;;10.10;99.90;;;;;;5021573;28;20582;-85
2023/12/27 18:22:07;;;;;;;4.67;2.53;;;10.10;99.90;;;;;;4964281;28;20462;-88
2023/12/27 18:25:42;;;;;;;2.70;2.00;;;9.90;99.90;;;;;;4965906;28;20582;-88
2023/12/27 18:28:17;;;;;;;7.27;2.63;;;10.10;99.90;;;;;;4947595;28;20511;-86
2023/12/27 18:31:17;;;;;;;4.40;2.73;;;10.10;99.90;;;;;;4978926;28;20451;-86
2023/12/27 18:34:30;;;;;;;;;;;;;;;;;;;;;
2023/12/27 18:37:27;;;;;;;4.37;2.47;;;10.10;99.90;;;;;;5024863;28;20584;-88
2023/12/27 18:40:06;;;;;;;4.00;2.57;;;10.20;99.80;;;;;;5024255;28;20965;-86
2023/12/27 18:43:10;;;;;;;4.40;2.77;;;10.10;99.90;;;;;;5039871;28;20458;-86
2023/12/27 18:46:57;;;;;;;3.57;2.47;;;10.00;99.90;;;;;;5024017;28;20536;-85
2023/12/27 18:50:03;;;;;;;2.67;2.27;;;10.00;99.90;;;;;;5016229;28;21628;-88
2023/12/27 18:56:09;;;;;;;3.67;2.63;;;10.00;99.90;;;;;;4992631;28;20470;-87
2023/12/27 19:03:33;;;;;;;3.83;2.87;;;9.90;99.90;;;;;;5018535;28;20446;-89
2023/12/27 19:06:39;;;;;;;4.00;2.27;;;9.90;99.90;;;;;;4992422;28;20456;-88
2023/12/27 19:12:54;;;;;;;2.37;2.20;;;9.90;99.90;;;;;;5022182;28;20499;-88
2023/12/27 19:15:33;;;;;;;4.57;3.20;;;9.90;99.80;;;;;;5014286;28;20574;-87
2023/12/27 19:18:49;;;;;;;4.30;1.77;;;9.90;99.50;;;;;;5011044;28;20455;-85
2023/12/27 19:21:43;;;;;;;4.03;2.37;;;9.80;99.30;;;;;;5005462;28;20491;-85
2023/12/27 19:24:49;;;;;;;2.50;2.30;;;9.90;99.10;;;;;;5020446;28;20672;-88
2023/12/27 19:28:04;;;;;;;5.03;2.47;;;10.00;97.90;;;;;;4988376;28;20453;-85
2023/12/27 19:30:50;;;;;;;4.07;2.33;;;10.00;97.70;;;;;;4938515;28;20459;-85
2023/12/27 19:34:17;;;;;;;2.40;1.70;;;10.00;97.70;;;;;;5024146;28;20446;-87
2023/12/27 19:36:54;;;;;;;;;;;;;;;;;;;;;
2023/12/27 19:40:02;;;;;;;3.03;2.17;;;10.00;97.40;;;;;;5028179;28;20570;-85
2023/12/27 19:42:34;;;;;;;4.83;2.43;;;10.00;97.60;;;;;;5008103;28;20458;-89
2023/12/27 19:45:38;;;;;;;7.33;1.93;;;9.90;98.40;;;;;;4994318;28;20461;-88
2023/12/27 19:48:28;;;;;;;2.60;2.27;;;9.80;98.60;;;;;;5002044;28;20465;-86
2023/12/27 19:51:11;;;;;;;4.00;2.80;;;9.80;98.50;;;;;;5027135;28;20568;-88
2023/12/27 19:54:04;;;;;;;2.20;2.00;;;9.90;98.60;;;;;;5021860;28;20458;-89
2023/12/27 19:56:38;;;;;;;3.67;2.23;;;9.80;98.50;;;;;;5005868;28;20454;-87
2023/12/27 19:59:26;;;;;;;4.07;2.97;;;9.90;98.20;;;;;;5009339;28;20488;-86
2023/12/27 20:02:11;;;;;;;3.70;2.47;;;9.90;98.10;;;;;;5025287;28;20486;-86
2023/12/27 20:04:54;;;;;;;2.37;1.93;;;9.90;97.80;;;;;;5026471;28;20522;-88
2023/12/27 20:07:31;;;;;;;2.40;1.97;;;9.90;97.60;;;;;;5007873;28;20461;-87
2023/12/27 20:10:18;;;;;;;3.70;2.00;;;10.00;96.80;;;;;;5023802;28;20570;-89
2023/12/27 20:12:50;;;;;;;3.40;2.40;;;10.00;96.20;;;;;;5005858;28;20458;-87
2023/12/27 20:15:39;;;;;;;2.23;2.03;;;10.10;95.90;;;;;;5007085;28;20477;-85
2023/12/27 20:21:32;;;;;;;2.27;2.07;;;10.10;95.70;;;;;;5017120;28;20837;-89
2023/12/27 20:24:27;;;;;;;3.23;2.30;;;10.10;95.50;;;;;;5004672;28;20458;-90
2023/12/27 20:27:47;;;;;;;6.53;2.30;;;10.10;95.30;;;;;;5022812;28;20508;-90
2023/12/27 20:34:04;;;;;;;5.23;2.23;;;10.10;95.20;;;;;;5016068;28;20438;-86
2023/12/27 20:36:39;;;;;;;3.23;2.03;;;10.20;95.00;;;;;;5005859;28;20442;-87
2023/12/27 20:39:35;;;;;;;2.57;1.70;;;10.10;94.90;;;;;;5007498;28;20470;-86
2023/12/27 20:42:19;;;;;;;2.93;2.60;;;10.20;94.10;;;;;;5001790;28;20462;-88
2023/12/27 20:44:56;;;;;;;3.13;1.80;;;10.20;93.90;;;;;;5014518;28;20480;-88
2023/12/27 20:47:36;;;;;;;2.27;2.07;;;10.20;93.70;;;;;;5024918;28;20966;-90
2023/12/27 20:50:43;;;;;;;2.10;2.00;;;10.30;93.40;;;;;;5007654;28;20477;-85
2023/12/27 20:53:25;;;;;;;2.57;2.30;;;10.30;92.90;;;;;;5007701;28;20464;-86
2023/12/27 20:56:48;;;;;;;2.93;2.13;;;10.40;92.40;;;;;;5036664;28;20587;-86
2023/12/27 20:59:44;;;;;;;2.37;1.93;;;10.40;92.00;;;;;;5017595;28;20455;-89
2023/12/27 21:02:28;;;;;;;2.33;2.13;;;10.50;91.90;;;;;;5009784;28;20469;-88
2023/12/27 21:05:04;;;;;;;3.20;2.07;;;10.60;91.80;;;;;;5003819;28;20481;-85
2023/12/27 21:07:37;;;;;;;5.27;2.00;;;10.60;91.60;;;;;;5011207;28;20854;-88
2023/12/27 21:10:19;;;;;;;1.47;1.30;;;10.70;91.40;;;;;;5021234;28;20493;-88
2023/12/27 21:13:15;;;;;;;1.93;1.80;;;10.70;91.20;;;;;;5003546;28;20492;-88
2023/12/27 21:16:23;;;;;;;2.37;1.23;;;10.80;91.10;;;;;;5010603;28;20454;-86
2023/12/27 21:19:16;;;;;;;2.67;2.13;;;10.80;91.00;;;;;;5006235;28;20513;-88
2023/12/27 21:21:51;;;;;;;2.20;2.03;;;10.80;90.80;;;;;;5007288;28;20526;-87
2023/12/27 21:25:00;;;;;;;1.33;1.27;;;10.80;90.90;;;;;;5004570;28;20489;-87
2023/12/27 21:27:53;;;;;;;3.03;1.77;;;10.90;90.70;;;;;;4997317;28;20870;-88
2023/12/27 21:30:44;;;;;;;3.07;1.90;;;10.90;90.50;;;;;;5007373;28;20443;-87
2023/12/27 21:33:27;;;;;;;4.73;1.77;;;10.80;90.60;;;;;;5009063;28;20456;-85
2023/12/27 21:36:27;;;;;;;2.20;2.00;;;10.90;91.00;;;;;;5023295;28;20573;-88
2023/12/27 21:39:09;;;;;;;3.17;1.47;;;11.00;90.30;;;;;;5022728;28;20543;-86
2023/12/27 21:41:52;;;;;;;3.53;2.03;;;10.90;90.50;;;;;;5020065;28;20493;-88
2023/12/27 21:44:47;;;;;;;3.73;2.30;;;11.00;90.40;;;;;;5005421;28;20449;-87
2023/12/27 21:47:51;;;;;;;2.17;1.80;;;11.10;90.30;;;;;;5007456;28;20465;-85
2023/12/27 21:50:43;;;;;;;2.23;1.40;;;11.20;90.20;;;;;;4969089;28;20801;-86
2023/12/27 21:53:19;;;;;;;1.53;1.43;;;11.10;90.10;;;;;;4974552;28;20457;-85
2023/12/27 21:59:55;;;;;;;2.33;1.83;;;11.40;89.20;;;;;;5023665;28;21202;-88
2023/12/27 22:02:56;;;;;;;2.60;1.70;;;11.40;88.50;;;;;;5023591;28;20465;-86
2023/12/27 22:05:45;;;;;;;2.47;2.00;;;11.30;88.70;;;;;;5004688;28;20475;-85
2023/12/27 22:08:20;;;;;;;3.53;2.00;;;11.40;88.30;;;;;;5017339;28;21400;-86
2023/12/27 22:14:04;;;;;;;2.10;1.60;;;11.40;87.80;;;;;;5025792;28;20460;-86
2023/12/27 22:16:48;;;;;;;3.27;2.03;;;11.20;88.80;;;;;;5015823;28;20513;-88
2023/12/27 22:23:04;;;;;;;1.50;1.40;;;11.40;88.10;;;;;;5008173;28;20427;-88
2023/12/27 22:26:05;;;;;;;1.87;1.50;;;11.60;87.50;;;;;;5023285;28;20475;-85
2023/12/27 22:29:12;;;;;;;3.33;1.63;;;11.60;87.30;;;;;;5009917;28;20509;-87
2023/12/27 22:32:37;;;;;;;2.37;1.33;;;11.60;87.30;;;;;;5014010;28;20461;-87
2023/12/27 22:35:39;;;;;;;2.03;1.80;;;11.60;87.30;;;;;;4999237;28;20747;-85
2023/12/27 22:38:40;;;;;;;3.30;1.93;;;11.70;87.20;;;;;;5004296;28;20461;-87
2023/12/27 22:41:30;;;;;;;1.60;1.40;;;11.60;87.40;;;;;;5000840;28;20562;-86
2023/12/27 22:44:43;;;;;;;2.37;1.93;;;11.60;87.70;;;;;;5021237;28;20447;-88
2023/12/27 22:48:30;;;;;;;1.87;1.40;;;11.70;87.80;;;;;;5019698;28;20466;-87
2023/12/27 22:51:19;;;;;;;2.17;1.63;;;11.80;87.70;;;;;;5019576;28;20448;-85
2023/12/27 22:54:00;;;;;;;1.47;1.37;;;11.70;88.00;;;;;;5017912;28;20548;-86
2023/12/27 22:57:17;;;;;;;2.53;1.90;;;11.70;88.40;;;;;;5027607;28;20443;-87
2023/12/27 23:00:43;;;;;;;3.60;2.30;;;11.70;88.40;;;;;;5021231;28;20473;-86
2023/12/27 23:03:43;;;;;;;1.87;1.60;;;11.80;88.50;;;;;;5038267;28;20469;-87
2023/12/27 23:06:48;;;;;;;2.10;1.90;;;11.80;88.90;;;;;;5033574;28;20453;-86
2023/12/27 23:09:29;;;;;;;2.10;1.90;;;11.70;89.90;;;;;;5039423;28;20492;-88
2023/12/27 23:12:57;;;;;;;1.97;1.60;;;11.70;90.50;;;;;;5041050;28;21844;-85
2023/12/27 23:16:36;;;;;;;1.90;1.60;;;11.80;90.80;;;;;;5024067;28;20542;-89
2023/12/27 23:19:35;;;;;;;2.37;1.60;;;11.80;91.10;;;;;;5025504;28;20498;-87
2023/12/27 23:23:07;;;;;;;4.53;1.67;;;11.70;91.60;;;;;;4980325;28;20465;-87
2023/12/27 23:26:01;;;;;;;1.40;1.30;;;11.90;91.90;;;;;;4966754;28;20459;-87
2023/12/27 23:28:32;;;;;;;1.93;1.63;;;11.80;92.20;;;;;;4960520;28;20440;-85
2023/12/27 23:31:22;;;;;;;2.40;1.60;;;11.80;92.30;;;;;;4970298;28;20476;-87
2023/12/27 23:33:58;;;;;;;2.00;1.67;;;11.90;92.50;;;;;;4968631;28;20643;-88
2023/12/27 23:36:54;;;;;;;;;;;;;;;;;;;;;
2023/12/27 23:39:33;;;;;;;1.50;1.40;;;11.90;92.70;;;;;;4974003;28;20449;-88
2023/12/27 23:42:44;;;;;;;1.53;1.43;;;11.90;92.60;;;;;;4979250;28;20494;-87
2023/12/27 23:45:31;;;;;;;1.70;1.40;;;11.90;92.80;;;;;;4969120;28;20468;-85
2023/12/27 23:48:05;;;;;;;1.67;1.47;;;12.00;92.90;;;;;;4981833;28;20452;-85
2023/12/27 23:51:38;;;;;;;1.93;1.37;;;12.00;93.30;;;;;;4981783;28;20441;-87
2023/12/27 23:54:11;;;;;;;1.60;1.50;;;12.10;93.40;;;;;;4968897;28;20506;-85
2023/12/27 23:57:23;;;;;;;3.20;1.50;;;12.10;93.70;;;;;;4979624;28;20447;-85
